sensor_id;sensor_type;location;lat;lon;timestamp;P1;durP1;ratioP1;P2;durP2;ratioP2
63653;SDS011;49809;47.418;19.080;2023-03-01T00:03:15;7.25;;;4.37;;
63653;SDS011;49809;47.418;19.080;2023-03-01T00:11:19;6.50;;;3.62;;
63653;SDS011;49809;47.418;19.080;2023-03-01T00:14:47;5.87;;;3.55;;
63653;SDS011;49809;47.418;19.080;2023-03-01T00:18:30;4.20;;;2.70;;
63653;SDS011;49809;47.418;19.080;2023-03-01T00:22:01;9.68;;;3.30;;
63653;SDS011;49809;47.418;19.080;2023-03-01T00:25:40;9.52;;;3.70;;
63653;SDS011;49809;47.418;19.080;2023-03-01T00:29:21;6.47;;;3.87;;
63653;SDS011;49809;47.418;19.080;2023-03-01T00:33:15;8.30;;;4.00;;
63653;SDS011;49809;47.418;19.080;2023-03-01T00:36:56;6.05;;;3.90;;
63653;SDS011;49809;47.418;19.080;2023-03-01T00:40:40;9.30;;;3.70;;
63653;SDS011;49809;47.418;19.080;2023-03-01T00:44:12;8.32;;;3.22;;
63653;SDS011;49809;47.418;19.080;2023-03-01T00:51:14;8.35;;;4.22;;
63653;SDS011;49809;47.418;19.080;2023-03-01T00:54:38;7.12;;;3.75;;
63653;SDS011;49809;47.418;19.080;2023-03-01T00:58:25;7.75;;;3.35;;
63653;SDS011;49809;47.418;19.080;2023-03-01T01:01:46;9.43;;;4.72;;
63653;SDS011;49809;47.418;19.080;2023-03-01T01:05:43;8.25;;;4.75;;
63653;SDS011;49809;47.418;19.080;2023-03-01T01:09:12;8.30;;;4.57;;
63653;SDS011;49809;47.418;19.080;2023-03-01T01:13:06;9.00;;;4.12;;
63653;SDS011;49809;47.418;19.080;2023-03-01T01:16:53;9.65;;;4.28;;
63653;SDS011;49809;47.418;19.080;2023-03-01T01:20:22;6.20;;;3.37;;
63653;SDS011;49809;47.418;19.080;2023-03-01T01:23:42;7.47;;;4.20;;
63653;SDS011;49809;47.418;19.080;2023-03-01T01:31:31;10.10;;;4.30;;
63653;SDS011;49809;47.418;19.080;2023-03-01T01:35:13;6.70;;;3.95;;
63653;SDS011;49809;47.418;19.080;2023-03-01T01:39:02;12.30;;;4.22;;
63653;SDS011;49809;47.418;19.080;2023-03-01T01:42:29;7.90;;;4.07;;
63653;SDS011;49809;47.418;19.080;2023-03-01T01:46:24;7.65;;;3.22;;
63653;SDS011;49809;47.418;19.080;2023-03-01T01:49:54;8.32;;;4.05;;
63653;SDS011;49809;47.418;19.080;2023-03-01T01:53:35;7.62;;;4.00;;
63653;SDS011;49809;47.418;19.080;2023-03-01T01:57:05;11.12;;;4.43;;
63653;SDS011;49809;47.418;19.080;2023-03-01T02:00:54;15.10;;;5.35;;
63653;SDS011;49809;47.418;19.080;2023-03-01T02:04:33;9.30;;;4.03;;
63653;SDS011;49809;47.418;19.080;2023-03-01T02:08:11;13.20;;;4.20;;
63653;SDS011;49809;47.418;19.080;2023-03-01T02:15:53;9.63;;;4.25;;
63653;SDS011;49809;47.418;19.080;2023-03-01T02:23:35;8.85;;;3.42;;
63653;SDS011;49809;47.418;19.080;2023-03-01T02:27:05;7.75;;;3.83;;
63653;SDS011;49809;47.418;19.080;2023-03-01T02:30:25;11.82;;;4.07;;
63653;SDS011;49809;47.418;19.080;2023-03-01T02:34:06;7.35;;;3.78;;
63653;SDS011;49809;47.418;19.080;2023-03-01T02:37:50;4.93;;;2.97;;
63653;SDS011;49809;47.418;19.080;2023-03-01T02:41:41;6.35;;;2.92;;
63653;SDS011;49809;47.418;19.080;2023-03-01T02:45:03;6.57;;;3.35;;
63653;SDS011;49809;47.418;19.080;2023-03-01T02:53:40;5.60;;;3.85;;
63653;SDS011;49809;47.418;19.080;2023-03-01T02:57:19;4.68;;;2.65;;
63653;SDS011;49809;47.418;19.080;2023-03-01T03:00:56;5.25;;;3.37;;
63653;SDS011;49809;47.418;19.080;2023-03-01T03:04:36;5.30;;;3.17;;
63653;SDS011;49809;47.418;19.080;2023-03-01T03:08:11;5.55;;;2.92;;
63653;SDS011;49809;47.418;19.080;2023-03-01T03:12:02;5.30;;;2.85;;
63653;SDS011;49809;47.418;19.080;2023-03-01T03:15:31;6.85;;;2.90;;
63653;SDS011;49809;47.418;19.080;2023-03-01T03:19:04;8.68;;;3.65;;
63653;SDS011;49809;47.418;19.080;2023-03-01T03:22:48;7.25;;;3.28;;
63653;SDS011;49809;47.418;19.080;2023-03-01T03:26:25;7.40;;;3.25;;
63653;SDS011;49809;47.418;19.080;2023-03-01T03:30:02;9.00;;;3.40;;
63653;SDS011;49809;47.418;19.080;2023-03-01T03:37:44;5.68;;;3.20;;
63653;SDS011;49809;47.418;19.080;2023-03-01T03:41:44;6.25;;;3.12;;
63653;SDS011;49809;47.418;19.080;2023-03-01T03:45:17;6.00;;;3.03;;
63653;SDS011;49809;47.418;19.080;2023-03-01T03:48:48;4.90;;;3.42;;
63653;SDS011;49809;47.418;19.080;2023-03-01T03:52:10;7.72;;;3.72;;
63653;SDS011;49809;47.418;19.080;2023-03-01T03:55:32;6.10;;;3.35;;
63653;SDS011;49809;47.418;19.080;2023-03-01T03:59:07;5.72;;;3.35;;
63653;SDS011;49809;47.418;19.080;2023-03-01T04:02:32;6.07;;;2.97;;
63653;SDS011;49809;47.418;19.080;2023-03-01T04:06:07;8.70;;;4.60;;
63653;SDS011;49809;47.418;19.080;2023-03-01T04:09:52;7.62;;;3.20;;
63653;SDS011;49809;47.418;19.080;2023-03-01T04:13:27;7.12;;;4.15;;
63653;SDS011;49809;47.418;19.080;2023-03-01T04:17:03;7.07;;;3.78;;
63653;SDS011;49809;47.418;19.080;2023-03-01T04:20:57;6.72;;;3.80;;
63653;SDS011;49809;47.418;19.080;2023-03-01T04:24:42;6.82;;;3.62;;
63653;SDS011;49809;47.418;19.080;2023-03-01T04:28:37;7.57;;;3.40;;
63653;SDS011;49809;47.418;19.080;2023-03-01T04:32:22;13.98;;;4.12;;
63653;SDS011;49809;47.418;19.080;2023-03-01T04:36:01;5.90;;;3.70;;
63653;SDS011;49809;47.418;19.080;2023-03-01T04:39:33;10.48;;;4.65;;
63653;SDS011;49809;47.418;19.080;2023-03-01T04:43:11;7.05;;;3.20;;
63653;SDS011;49809;47.418;19.080;2023-03-01T04:47:11;7.15;;;3.70;;
63653;SDS011;49809;47.418;19.080;2023-03-01T04:55:21;5.80;;;3.10;;
63653;SDS011;49809;47.418;19.080;2023-03-01T04:58:54;7.07;;;4.00;;
63653;SDS011;49809;47.418;19.080;2023-03-01T05:02:30;8.23;;;3.50;;
63653;SDS011;49809;47.418;19.080;2023-03-01T05:05:54;4.65;;;3.20;;
63653;SDS011;49809;47.418;19.080;2023-03-01T05:09:38;4.20;;;2.58;;
63653;SDS011;49809;47.418;19.080;2023-03-01T05:13:18;4.50;;;3.05;;
63653;SDS011;49809;47.418;19.080;2023-03-01T05:17:07;6.37;;;3.72;;
63653;SDS011;49809;47.418;19.080;2023-03-01T05:20:32;5.78;;;3.12;;
63653;SDS011;49809;47.418;19.080;2023-03-01T05:24:14;7.35;;;3.05;;
63653;SDS011;49809;47.418;19.080;2023-03-01T05:27:38;7.37;;;4.12;;
63653;SDS011;49809;47.418;19.080;2023-03-01T05:31:20;6.55;;;3.67;;
63653;SDS011;49809;47.418;19.080;2023-03-01T05:35:16;10.32;;;4.97;;
63653;SDS011;49809;47.418;19.080;2023-03-01T05:38:48;5.10;;;2.60;;
63653;SDS011;49809;47.418;19.080;2023-03-01T05:42:27;9.23;;;3.37;;
63653;SDS011;49809;47.418;19.080;2023-03-01T05:46:26;7.03;;;4.07;;
63653;SDS011;49809;47.418;19.080;2023-03-01T05:50:01;9.43;;;3.60;;
63653;SDS011;49809;47.418;19.080;2023-03-01T05:53:39;6.82;;;3.20;;
63653;SDS011;49809;47.418;19.080;2023-03-01T05:57:12;7.90;;;4.07;;
63653;SDS011;49809;47.418;19.080;2023-03-01T06:00:47;8.90;;;3.37;;
63653;SDS011;49809;47.418;19.080;2023-03-01T06:04:33;6.22;;;2.78;;
63653;SDS011;49809;47.418;19.080;2023-03-01T06:08:10;7.85;;;3.60;;
63653;SDS011;49809;47.418;19.080;2023-03-01T06:11:47;6.55;;;4.03;;
63653;SDS011;49809;47.418;19.080;2023-03-01T06:15:18;6.10;;;3.37;;
63653;SDS011;49809;47.418;19.080;2023-03-01T06:18:45;6.68;;;3.05;;
63653;SDS011;49809;47.418;19.080;2023-03-01T06:22:08;6.90;;;3.28;;
63653;SDS011;49809;47.418;19.080;2023-03-01T06:25:39;6.05;;;3.58;;
63653;SDS011;49809;47.418;19.080;2023-03-01T06:29:04;8.68;;;3.30;;
63653;SDS011;49809;47.418;19.080;2023-03-01T06:32:26;6.03;;;3.83;;
63653;SDS011;49809;47.418;19.080;2023-03-01T06:35:56;9.88;;;4.07;;
63653;SDS011;49809;47.418;19.080;2023-03-01T06:39:41;6.07;;;3.42;;
63653;SDS011;49809;47.418;19.080;2023-03-01T06:43:31;4.57;;;3.55;;
63653;SDS011;49809;47.418;19.080;2023-03-01T06:47:19;6.97;;;3.67;;
63653;SDS011;49809;47.418;19.080;2023-03-01T06:51:04;5.68;;;2.70;;
63653;SDS011;49809;47.418;19.080;2023-03-01T06:54:33;6.93;;;3.10;;
63653;SDS011;49809;47.418;19.080;2023-03-01T06:57:58;7.75;;;3.60;;
63653;SDS011;49809;47.418;19.080;2023-03-01T07:01:23;10.38;;;4.22;;
63653;SDS011;49809;47.418;19.080;2023-03-01T07:04:56;11.95;;;4.50;;
63653;SDS011;49809;47.418;19.080;2023-03-01T07:08:45;6.97;;;3.47;;
63653;SDS011;49809;47.418;19.080;2023-03-01T07:12:32;7.75;;;4.00;;
63653;SDS011;49809;47.418;19.080;2023-03-01T07:16:27;8.02;;;3.53;;
63653;SDS011;49809;47.418;19.080;2023-03-01T07:19:49;7.57;;;3.65;;
63653;SDS011;49809;47.418;19.080;2023-03-01T07:27:33;6.78;;;3.53;;
63653;SDS011;49809;47.418;19.080;2023-03-01T07:31:10;4.85;;;2.87;;
63653;SDS011;49809;47.418;19.080;2023-03-01T07:34:43;9.02;;;4.37;;
63653;SDS011;49809;47.418;19.080;2023-03-01T07:45:58;6.90;;;3.50;;
63653;SDS011;49809;47.418;19.080;2023-03-01T07:49:35;7.43;;;3.67;;
63653;SDS011;49809;47.418;19.080;2023-03-01T07:53:41;11.57;;;4.22;;
63653;SDS011;49809;47.418;19.080;2023-03-01T07:57:24;9.35;;;3.30;;
63653;SDS011;49809;47.418;19.080;2023-03-01T08:01:03;6.85;;;3.78;;
63653;SDS011;49809;47.418;19.080;2023-03-01T08:04:25;7.30;;;3.45;;
63653;SDS011;49809;47.418;19.080;2023-03-01T08:08:04;7.72;;;3.92;;
63653;SDS011;49809;47.418;19.080;2023-03-01T08:11:37;7.80;;;4.05;;
63653;SDS011;49809;47.418;19.080;2023-03-01T08:18:55;9.80;;;4.55;;
63653;SDS011;49809;47.418;19.080;2023-03-01T08:22:35;9.80;;;4.35;;
63653;SDS011;49809;47.418;19.080;2023-03-01T08:26:10;7.90;;;4.03;;
63653;SDS011;49809;47.418;19.080;2023-03-01T08:29:54;8.52;;;4.15;;
63653;SDS011;49809;47.418;19.080;2023-03-01T08:33:25;7.65;;;4.00;;
63653;SDS011;49809;47.418;19.080;2023-03-01T08:36:49;5.75;;;3.55;;
63653;SDS011;49809;47.418;19.080;2023-03-01T08:44:15;7.10;;;3.60;;
63653;SDS011;49809;47.418;19.080;2023-03-01T08:47:35;8.05;;;3.95;;
63653;SDS011;49809;47.418;19.080;2023-03-01T08:51:17;10.55;;;4.68;;
63653;SDS011;49809;47.418;19.080;2023-03-01T08:54:45;9.65;;;4.53;;
63653;SDS011;49809;47.418;19.080;2023-03-01T08:58:22;6.80;;;4.00;;
63653;SDS011;49809;47.418;19.080;2023-03-01T09:01:57;7.07;;;3.70;;
63653;SDS011;49809;47.418;19.080;2023-03-01T09:05:25;8.02;;;4.07;;
63653;SDS011;49809;47.418;19.080;2023-03-01T09:09:13;8.48;;;4.00;;
63653;SDS011;49809;47.418;19.080;2023-03-01T09:12:33;9.27;;;4.07;;
63653;SDS011;49809;47.418;19.080;2023-03-01T09:16:17;7.78;;;3.85;;
63653;SDS011;49809;47.418;19.080;2023-03-01T09:19:35;8.38;;;4.07;;
63653;SDS011;49809;47.418;19.080;2023-03-01T09:22:57;10.68;;;4.00;;
63653;SDS011;49809;47.418;19.080;2023-03-01T09:26:07;9.35;;;4.12;;
63653;SDS011;49809;47.418;19.080;2023-03-01T09:29:57;9.25;;;3.72;;
63653;SDS011;49809;47.418;19.080;2023-03-01T09:33:00;8.30;;;4.07;;
63653;SDS011;49809;47.418;19.080;2023-03-01T09:36:05;7.47;;;4.00;;
63653;SDS011;49809;47.418;19.080;2023-03-01T09:43:11;6.72;;;3.92;;
63653;SDS011;49809;47.418;19.080;2023-03-01T09:51:13;7.00;;;4.10;;
63653;SDS011;49809;47.418;19.080;2023-03-01T09:54:42;7.55;;;3.90;;
63653;SDS011;49809;47.418;19.080;2023-03-01T10:02:05;6.28;;;3.55;;
63653;SDS011;49809;47.418;19.080;2023-03-01T10:05:52;7.93;;;4.30;;
63653;SDS011;49809;47.418;19.080;2023-03-01T10:08:59;10.25;;;4.25;;
63653;SDS011;49809;47.418;19.080;2023-03-01T10:24:18;8.60;;;4.05;;
63653;SDS011;49809;47.418;19.080;2023-03-01T10:27:49;7.50;;;4.12;;
63653;SDS011;49809;47.418;19.080;2023-03-01T10:31:15;8.32;;;4.28;;
63653;SDS011;49809;47.418;19.080;2023-03-01T10:34:30;6.60;;;3.78;;
63653;SDS011;49809;47.418;19.080;2023-03-01T10:38:11;7.60;;;4.25;;
63653;SDS011;49809;47.418;19.080;2023-03-01T10:42:05;8.57;;;4.30;;
63653;SDS011;49809;47.418;19.080;2023-03-01T10:50:03;7.10;;;3.78;;
63653;SDS011;49809;47.418;19.080;2023-03-01T10:53:24;6.07;;;3.72;;
63653;SDS011;49809;47.418;19.080;2023-03-01T10:57:10;4.85;;;3.47;;
63653;SDS011;49809;47.418;19.080;2023-03-01T11:01:03;7.43;;;3.67;;
63653;SDS011;49809;47.418;19.080;2023-03-01T11:04:28;8.95;;;4.25;;
63653;SDS011;49809;47.418;19.080;2023-03-01T11:07:32;10.80;;;4.80;;
63653;SDS011;49809;47.418;19.080;2023-03-01T11:14:37;6.62;;;4.18;;
63653;SDS011;49809;47.418;19.080;2023-03-01T11:17:48;6.53;;;4.10;;
63653;SDS011;49809;47.418;19.080;2023-03-01T11:21:54;6.10;;;4.10;;
63653;SDS011;49809;47.418;19.080;2023-03-01T11:25:04;8.95;;;3.70;;
63653;SDS011;49809;47.418;19.080;2023-03-01T11:28:41;6.72;;;3.65;;
63653;SDS011;49809;47.418;19.080;2023-03-01T11:31:57;5.40;;;3.10;;
63653;SDS011;49809;47.418;19.080;2023-03-01T11:35:20;7.25;;;3.47;;
63653;SDS011;49809;47.418;19.080;2023-03-01T11:38:51;7.82;;;3.28;;
63653;SDS011;49809;47.418;19.080;2023-03-01T11:45:43;6.62;;;3.22;;
63653;SDS011;49809;47.418;19.080;2023-03-01T11:49:30;5.55;;;3.22;;
63653;SDS011;49809;47.418;19.080;2023-03-01T11:53:13;5.25;;;2.70;;
63653;SDS011;49809;47.418;19.080;2023-03-01T11:57:28;7.07;;;3.22;;
63653;SDS011;49809;47.418;19.080;2023-03-01T12:35:24;5.40;;;3.10;;
63653;SDS011;49809;47.418;19.080;2023-03-01T12:38:49;5.00;;;2.65;;
63653;SDS011;49809;47.418;19.080;2023-03-01T12:50:48;4.15;;;2.12;;
63653;SDS011;49809;47.418;19.080;2023-03-01T12:54:20;4.60;;;2.40;;
63653;SDS011;49809;47.418;19.080;2023-03-01T13:08:44;4.15;;;2.10;;
63653;SDS011;49809;47.418;19.080;2023-03-01T13:11:50;5.25;;;2.40;;
63653;SDS011;49809;47.418;19.080;2023-03-01T13:22:33;4.82;;;2.10;;
63653;SDS011;49809;47.418;19.080;2023-03-01T13:26:11;4.30;;;2.42;;
63653;SDS011;49809;47.418;19.080;2023-03-01T13:32:51;5.78;;;2.10;;
63653;SDS011;49809;47.418;19.080;2023-03-01T13:36:45;5.22;;;2.08;;
63653;SDS011;49809;47.418;19.080;2023-03-01T13:43:56;2.97;;;2.10;;
63653;SDS011;49809;47.418;19.080;2023-03-01T13:51:30;3.92;;;1.80;;
63653;SDS011;49809;47.418;19.080;2023-03-01T13:54:51;3.47;;;1.98;;
63653;SDS011;49809;47.418;19.080;2023-03-01T13:58:28;3.05;;;2.00;;
63653;SDS011;49809;47.418;19.080;2023-03-01T14:01:53;3.78;;;1.80;;
63653;SDS011;49809;47.418;19.080;2023-03-01T14:09:53;3.78;;;1.40;;
63653;SDS011;49809;47.418;19.080;2023-03-01T14:21:47;3.80;;;1.60;;
63653;SDS011;49809;47.418;19.080;2023-03-01T14:29:56;2.05;;;1.27;;
63653;SDS011;49809;47.418;19.080;2023-03-01T14:33:41;4.10;;;1.50;;
63653;SDS011;49809;47.418;19.080;2023-03-01T14:37:39;3.30;;;1.62;;
63653;SDS011;49809;47.418;19.080;2023-03-01T14:40:47;5.00;;;1.97;;
63653;SDS011;49809;47.418;19.080;2023-03-01T14:52:18;10.80;;;6.15;;
63653;SDS011;49809;47.418;19.080;2023-03-01T14:55:55;3.17;;;2.22;;
63653;SDS011;49809;47.418;19.080;2023-03-01T14:59:44;1.92;;;1.37;;
63653;SDS011;49809;47.418;19.080;2023-03-01T15:07:23;10.23;;;4.35;;
63653;SDS011;49809;47.418;19.080;2023-03-01T15:10:57;6.03;;;2.28;;
63653;SDS011;49809;47.418;19.080;2023-03-01T15:14:41;3.95;;;2.05;;
63653;SDS011;49809;47.418;19.080;2023-03-01T15:18:06;8.65;;;3.37;;
63653;SDS011;49809;47.418;19.080;2023-03-01T15:21:26;2.85;;;1.80;;
63653;SDS011;49809;47.418;19.080;2023-03-01T15:24:41;2.65;;;1.80;;
63653;SDS011;49809;47.418;19.080;2023-03-01T15:27:52;3.92;;;2.10;;
63653;SDS011;49809;47.418;19.080;2023-03-01T15:31:03;4.15;;;1.90;;
63653;SDS011;49809;47.418;19.080;2023-03-01T15:34:23;2.58;;;1.65;;
63653;SDS011;49809;47.418;19.080;2023-03-01T15:37:48;4.90;;;1.90;;
63653;SDS011;49809;47.418;19.080;2023-03-01T15:41:03;3.97;;;1.80;;
63653;SDS011;49809;47.418;19.080;2023-03-01T15:44:26;2.95;;;1.90;;
63653;SDS011;49809;47.418;19.080;2023-03-01T15:47:48;4.12;;;1.87;;
63653;SDS011;49809;47.418;19.080;2023-03-01T15:50:54;5.60;;;2.22;;
63653;SDS011;49809;47.418;19.080;2023-03-01T15:54:03;4.28;;;2.30;;
63653;SDS011;49809;47.418;19.080;2023-03-01T15:57:17;3.47;;;2.20;;
63653;SDS011;49809;47.418;19.080;2023-03-01T16:00:23;3.00;;;2.05;;
63653;SDS011;49809;47.418;19.080;2023-03-01T16:03:55;4.65;;;1.67;;
63653;SDS011;49809;47.418;19.080;2023-03-01T16:07:00;2.75;;;1.62;;
63653;SDS011;49809;47.418;19.080;2023-03-01T16:10:36;3.25;;;1.75;;
63653;SDS011;49809;47.418;19.080;2023-03-01T16:13:52;3.65;;;1.90;;
63653;SDS011;49809;47.418;19.080;2023-03-01T16:16:55;2.72;;;1.75;;
63653;SDS011;49809;47.418;19.080;2023-03-01T16:20:22;4.07;;;2.20;;
63653;SDS011;49809;47.418;19.080;2023-03-01T16:23:31;21.70;;;4.47;;
63653;SDS011;49809;47.418;19.080;2023-03-01T16:26:39;7.43;;;3.22;;
63653;SDS011;49809;47.418;19.080;2023-03-01T16:29:41;7.57;;;4.25;;
63653;SDS011;49809;47.418;19.080;2023-03-01T16:33:48;7.53;;;3.90;;
63653;SDS011;49809;47.418;19.080;2023-03-01T16:37:17;7.00;;;3.35;;
63653;SDS011;49809;47.418;19.080;2023-03-01T16:40:43;6.12;;;3.00;;
63653;SDS011;49809;47.418;19.080;2023-03-01T16:43:56;4.85;;;3.15;;
63653;SDS011;49809;47.418;19.080;2023-03-01T16:47:00;9.45;;;2.95;;
63653;SDS011;49809;47.418;19.080;2023-03-01T16:50:07;5.45;;;2.62;;
63653;SDS011;49809;47.418;19.080;2023-03-01T16:53:12;6.30;;;3.00;;
63653;SDS011;49809;47.418;19.080;2023-03-01T16:56:39;4.97;;;2.83;;
63653;SDS011;49809;47.418;19.080;2023-03-01T16:59:43;5.72;;;3.00;;
63653;SDS011;49809;47.418;19.080;2023-03-01T17:02:54;6.93;;;3.53;;
63653;SDS011;49809;47.418;19.080;2023-03-01T17:06:03;6.82;;;3.42;;
63653;SDS011;49809;47.418;19.080;2023-03-01T17:09:08;6.47;;;3.80;;
63653;SDS011;49809;47.418;19.080;2023-03-01T17:12:48;8.55;;;4.18;;
63653;SDS011;49809;47.418;19.080;2023-03-01T17:16:25;8.15;;;3.83;;
63653;SDS011;49809;47.418;19.080;2023-03-01T17:19:44;10.52;;;5.18;;
63653;SDS011;49809;47.418;19.080;2023-03-01T17:23:27;7.78;;;5.00;;
63653;SDS011;49809;47.418;19.080;2023-03-01T17:27:06;15.40;;;5.62;;
63653;SDS011;49809;47.418;19.080;2023-03-01T17:30:14;12.45;;;5.80;;
63653;SDS011;49809;47.418;19.080;2023-03-01T17:33:52;13.45;;;6.60;;
63653;SDS011;49809;47.418;19.080;2023-03-01T17:41:36;15.93;;;7.18;;
63653;SDS011;49809;47.418;19.080;2023-03-01T17:45:13;16.08;;;7.37;;
63653;SDS011;49809;47.418;19.080;2023-03-01T17:48:44;18.35;;;8.52;;
63653;SDS011;49809;47.418;19.080;2023-03-01T17:52:26;12.07;;;6.25;;
63653;SDS011;49809;47.418;19.080;2023-03-01T17:55:49;15.27;;;6.60;;
63653;SDS011;49809;47.418;19.080;2023-03-01T17:59:27;18.20;;;7.53;;
63653;SDS011;49809;47.418;19.080;2023-03-01T18:03:05;15.65;;;7.40;;
63653;SDS011;49809;47.418;19.080;2023-03-01T18:06:42;22.45;;;8.38;;
63653;SDS011;49809;47.418;19.080;2023-03-01T18:10:26;14.05;;;8.32;;
63653;SDS011;49809;47.418;19.080;2023-03-01T18:14:02;17.35;;;7.62;;
63653;SDS011;49809;47.418;19.080;2023-03-01T18:17:06;20.08;;;8.73;;
63653;SDS011;49809;47.418;19.080;2023-03-01T18:20:13;13.90;;;7.35;;
63653;SDS011;49809;47.418;19.080;2023-03-01T18:23:18;13.13;;;7.43;;
63653;SDS011;49809;47.418;19.080;2023-03-01T18:26:23;15.18;;;7.87;;
63653;SDS011;49809;47.418;19.080;2023-03-01T18:29:54;15.98;;;7.85;;
63653;SDS011;49809;47.418;19.080;2023-03-01T18:33:18;18.60;;;9.13;;
63653;SDS011;49809;47.418;19.080;2023-03-01T18:37:02;17.95;;;8.95;;
63653;SDS011;49809;47.418;19.080;2023-03-01T18:40:40;18.10;;;7.62;;
63653;SDS011;49809;47.418;19.080;2023-03-01T18:43:46;14.18;;;6.72;;
63653;SDS011;49809;47.418;19.080;2023-03-01T18:47:14;14.45;;;7.53;;
63653;SDS011;49809;47.418;19.080;2023-03-01T18:50:50;13.73;;;6.50;;
63653;SDS011;49809;47.418;19.080;2023-03-01T18:53:58;16.48;;;7.78;;
63653;SDS011;49809;47.418;19.080;2023-03-01T18:57:34;15.63;;;7.47;;
63653;SDS011;49809;47.418;19.080;2023-03-01T19:01:16;14.25;;;5.37;;
63653;SDS011;49809;47.418;19.080;2023-03-01T19:04:26;10.38;;;5.62;;
63653;SDS011;49809;47.418;19.080;2023-03-01T19:07:29;14.27;;;7.20;;
63653;SDS011;49809;47.418;19.080;2023-03-01T19:11:18;15.55;;;7.07;;
63653;SDS011;49809;47.418;19.080;2023-03-01T19:14:22;11.35;;;5.50;;
63653;SDS011;49809;47.418;19.080;2023-03-01T19:17:33;15.73;;;5.80;;
63653;SDS011;49809;47.418;19.080;2023-03-01T19:21:10;17.35;;;7.10;;
63653;SDS011;49809;47.418;19.080;2023-03-01T19:24:36;13.35;;;6.72;;
63653;SDS011;49809;47.418;19.080;2023-03-01T19:27:43;15.75;;;5.93;;
63653;SDS011;49809;47.418;19.080;2023-03-01T19:31:31;10.85;;;5.43;;
63653;SDS011;49809;47.418;19.080;2023-03-01T19:34:37;10.75;;;5.93;;
63653;SDS011;49809;47.418;19.080;2023-03-01T19:38:04;13.15;;;5.72;;
63653;SDS011;49809;47.418;19.080;2023-03-01T19:41:10;8.60;;;4.22;;
63653;SDS011;49809;47.418;19.080;2023-03-01T19:44:38;11.10;;;5.25;;
63653;SDS011;49809;47.418;19.080;2023-03-01T19:47:45;12.68;;;6.45;;
63653;SDS011;49809;47.418;19.080;2023-03-01T19:50:52;12.63;;;5.87;;
63653;SDS011;49809;47.418;19.080;2023-03-01T19:53:59;11.43;;;5.82;;
63653;SDS011;49809;47.418;19.080;2023-03-01T19:57:03;12.68;;;6.70;;
63653;SDS011;49809;47.418;19.080;2023-03-01T20:00:06;8.77;;;4.93;;
63653;SDS011;49809;47.418;19.080;2023-03-01T20:03:39;12.88;;;5.65;;
63653;SDS011;49809;47.418;19.080;2023-03-01T20:07:24;7.55;;;5.68;;
63653;SDS011;49809;47.418;19.080;2023-03-01T20:10:51;13.60;;;6.05;;
63653;SDS011;49809;47.418;19.080;2023-03-01T20:13:56;10.73;;;5.90;;
63653;SDS011;49809;47.418;19.080;2023-03-01T20:17:42;8.90;;;5.25;;
63653;SDS011;49809;47.418;19.080;2023-03-01T20:20:50;12.43;;;4.68;;
63653;SDS011;49809;47.418;19.080;2023-03-01T20:24:29;7.75;;;4.40;;
63653;SDS011;49809;47.418;19.080;2023-03-01T20:27:38;18.87;;;8.27;;
63653;SDS011;49809;47.418;19.080;2023-03-01T20:30:50;9.00;;;4.53;;
63653;SDS011;49809;47.418;19.080;2023-03-01T20:34:01;10.20;;;5.43;;
63653;SDS011;49809;47.418;19.080;2023-03-01T20:37:46;11.55;;;4.72;;
63653;SDS011;49809;47.418;19.080;2023-03-01T20:49:28;17.02;;;6.68;;
63653;SDS011;49809;47.418;19.080;2023-03-01T20:53:12;11.90;;;6.57;;
63653;SDS011;49809;47.418;19.080;2023-03-01T20:56:17;12.90;;;6.25;;
63653;SDS011;49809;47.418;19.080;2023-03-01T21:00:07;8.95;;;5.45;;
63653;SDS011;49809;47.418;19.080;2023-03-01T21:03:10;9.25;;;6.15;;
63653;SDS011;49809;47.418;19.080;2023-03-01T21:06:56;13.10;;;5.03;;
63653;SDS011;49809;47.418;19.080;2023-03-01T21:10:18;10.35;;;5.65;;
63653;SDS011;49809;47.418;19.080;2023-03-01T21:13:24;9.38;;;6.07;;
63653;SDS011;49809;47.418;19.080;2023-03-01T21:16:51;13.02;;;6.45;;
63653;SDS011;49809;47.418;19.080;2023-03-01T21:20:35;16.42;;;6.05;;
63653;SDS011;49809;47.418;19.080;2023-03-01T21:24:04;13.07;;;7.20;;
63653;SDS011;49809;47.418;19.080;2023-03-01T21:27:48;7.78;;;4.75;;
63653;SDS011;49809;47.418;19.080;2023-03-01T21:31:15;8.98;;;5.57;;
63653;SDS011;49809;47.418;19.080;2023-03-01T21:38:49;8.43;;;4.80;;
63653;SDS011;49809;47.418;19.080;2023-03-01T21:42:13;9.13;;;5.25;;
63653;SDS011;49809;47.418;19.080;2023-03-01T21:46:01;13.02;;;5.60;;
63653;SDS011;49809;47.418;19.080;2023-03-01T21:49:25;7.20;;;5.28;;
63653;SDS011;49809;47.418;19.080;2023-03-01T21:52:52;11.20;;;5.55;;
63653;SDS011;49809;47.418;19.080;2023-03-01T21:55:55;10.32;;;6.85;;
63653;SDS011;49809;47.418;19.080;2023-03-01T22:00:00;12.20;;;5.35;;
63653;SDS011;49809;47.418;19.080;2023-03-01T22:03:48;11.45;;;5.15;;
63653;SDS011;49809;47.418;19.080;2023-03-01T22:07:11;9.60;;;6.53;;
63653;SDS011;49809;47.418;19.080;2023-03-01T22:11:20;5.82;;;4.20;;
63653;SDS011;49809;47.418;19.080;2023-03-01T22:14:25;10.80;;;5.22;;
63653;SDS011;49809;47.418;19.080;2023-03-01T22:17:52;8.70;;;5.03;;
63653;SDS011;49809;47.418;19.080;2023-03-01T22:20:55;13.00;;;5.22;;
63653;SDS011;49809;47.418;19.080;2023-03-01T22:24:20;14.20;;;6.62;;
63653;SDS011;49809;47.418;19.080;2023-03-01T22:27:27;8.52;;;4.40;;
63653;SDS011;49809;47.418;19.080;2023-03-01T22:30:33;10.60;;;4.62;;
63653;SDS011;49809;47.418;19.080;2023-03-01T22:33:56;9.65;;;4.60;;
63653;SDS011;49809;47.418;19.080;2023-03-01T22:37:05;7.35;;;4.15;;
63653;SDS011;49809;47.418;19.080;2023-03-01T22:40:25;7.50;;;4.70;;
63653;SDS011;49809;47.418;19.080;2023-03-01T22:43:31;14.65;;;4.57;;
63653;SDS011;49809;47.418;19.080;2023-03-01T22:46:34;5.60;;;3.67;;
63653;SDS011;49809;47.418;19.080;2023-03-01T22:49:57;7.57;;;3.53;;
63653;SDS011;49809;47.418;19.080;2023-03-01T22:53:33;7.20;;;3.65;;
63653;SDS011;49809;47.418;19.080;2023-03-01T22:57:09;6.68;;;3.65;;
63653;SDS011;49809;47.418;19.080;2023-03-01T23:00:53;13.23;;;3.92;;
63653;SDS011;49809;47.418;19.080;2023-03-01T23:04:16;8.80;;;3.58;;
63653;SDS011;49809;47.418;19.080;2023-03-01T23:15:15;7.25;;;3.62;;
63653;SDS011;49809;47.418;19.080;2023-03-01T23:18:43;6.25;;;3.95;;
63653;SDS011;49809;47.418;19.080;2023-03-01T23:22:29;5.32;;;3.00;;
63653;SDS011;49809;47.418;19.080;2023-03-01T23:25:54;6.93;;;3.33;;
63653;SDS011;49809;47.418;19.080;2023-03-01T23:33:10;9.68;;;2.47;;
63653;SDS011;49809;47.418;19.080;2023-03-01T23:36:37;7.37;;;3.15;;
63653;SDS011;49809;47.418;19.080;2023-03-01T23:40:06;5.68;;;2.97;;
63653;SDS011;49809;47.418;19.080;2023-03-01T23:43:31;5.05;;;2.90;;
63653;SDS011;49809;47.418;19.080;2023-03-01T23:46:56;5.75;;;3.50;;
63653;SDS011;49809;47.418;19.080;2023-03-01T23:50:33;4.95;;;2.62;;
63653;SDS011;49809;47.418;19.080;2023-03-01T23:57:33;5.22;;;3.75;;
